createdAt,value
2022-07-27T00:02:16.957Z,56.9
2022-07-27T00:06:57.259Z,57.2
2022-07-27T00:11:31.742Z,57.8
2022-07-27T00:16:07.194Z,58.5
2022-07-27T00:20:44.353Z,58.5
2022-07-27T00:25:20.977Z,58.5
2022-07-27T00:29:57.865Z,58.8
2022-07-27T00:34:34.827Z,59.1
2022-07-27T00:39:12.003Z,59.4
2022-07-27T00:43:48.663Z,59.7
2022-07-27T00:48:27.181Z,60
2022-07-27T00:53:02.486Z,61
2022-07-27T00:57:58.372Z,61
2022-07-27T01:02:22.790Z,61.6
2022-07-27T01:06:53.293Z,61.6
2022-07-27T01:11:30.175Z,61.3
2022-07-27T01:16:07.226Z,61
2022-07-27T01:20:44.056Z,61
2022-07-27T01:25:20.955Z,61
2022-07-27T01:29:57.915Z,61.6
2022-07-27T01:34:36.562Z,61.9
2022-07-27T01:39:12.058Z,62.3
2022-07-27T01:43:48.667Z,62.3
2022-07-27T01:48:25.557Z,62.3
2022-07-27T01:53:02.549Z,62.3
2022-07-27T01:57:39.403Z,61.7
2022-07-27T02:02:16.353Z,61
2022-07-27T02:06:53.250Z,61
2022-07-27T02:11:30.212Z,61
2022-07-27T02:16:09.745Z,61
2022-07-27T02:20:44.053Z,61.3
2022-07-27T02:25:21.025Z,61.6
2022-07-27T02:29:57.874Z,62.2
2022-07-27T02:34:34.811Z,62.6
2022-07-27T02:39:12.004Z,62.9
2022-07-27T02:43:48.657Z,63.5
2022-07-27T02:48:25.558Z,63.5
2022-07-27T02:53:02.508Z,63.5
2022-07-27T03:02:17.432Z,64.1
2022-07-27T03:06:53.552Z,64.1
2022-07-27T03:11:30.498Z,64.4
2022-07-27T03:16:07.444Z,64.7
2022-07-27T03:20:44.347Z,65.1
2022-07-27T03:25:21.235Z,65.4
2022-07-27T03:29:58.193Z,66
2022-07-27T03:34:35.092Z,66
2022-07-27T03:39:13.665Z,66.3
2022-07-27T03:43:48.993Z,66.6
2022-07-27T03:48:25.902Z,67.2
2022-07-27T03:53:03.166Z,67.2
2022-07-27T03:57:39.722Z,67.2
2022-07-27T04:02:16.665Z,67.2
2022-07-27T04:06:53.571Z,66.6
2022-07-27T04:11:30.949Z,66.6
2022-07-27T04:16:07.410Z,66.3
2022-07-27T04:20:44.310Z,66.7
2022-07-27T04:25:21.270Z,66.7
2022-07-27T04:29:58.162Z,66.7
2022-07-27T04:34:35.116Z,66.7
2022-07-27T04:39:24.023Z,66.7
2022-07-27T04:39:59.734Z,66.4
2022-07-27T04:45:00.864Z,66.4
2022-07-27T04:50:00.157Z,66.1
2022-07-27T04:55:00.154Z,65.4
2022-07-27T05:00:00.169Z,65.1
2022-07-27T05:05:00.149Z,64.8
2022-07-27T05:10:00.200Z,65.5
2022-07-27T05:15:00.144Z,65.5
2022-07-27T05:20:00.166Z,65.2
2022-07-27T05:25:00.195Z,64.9
2022-07-27T05:30:00.215Z,64.9
2022-07-27T05:35:00.145Z,64.9
2022-07-27T05:40:00.163Z,64.6
2022-07-27T05:45:00.174Z,64.3
2022-07-27T05:50:00.192Z,64
2022-07-27T05:55:00.224Z,63.7
2022-07-27T06:00:00.217Z,63.1
2022-07-27T06:05:00.170Z,62.8
2022-07-27T06:10:00.173Z,62.1
2022-07-27T06:15:00.231Z,61.9
2022-07-27T06:20:00.202Z,61.9
2022-07-27T06:25:00.157Z,60.9
2022-07-27T06:30:00.183Z,60.9
2022-07-27T06:35:00.145Z,60.3
2022-07-27T06:40:00.177Z,59.4
2022-07-27T06:45:00.160Z,59.1
2022-07-27T06:50:00.165Z,57.5
2022-07-27T06:55:00.152Z,56.2
2022-07-27T07:00:00.164Z,55.9
2022-07-27T07:05:00.148Z,56.2
2022-07-27T07:10:00.170Z,56.3
2022-07-27T07:15:00.714Z,55.7
2022-07-27T07:20:00.196Z,54.1
2022-07-27T07:25:02.899Z,52.8
2022-07-27T07:30:00.158Z,53.5
2022-07-27T07:35:00.195Z,52.6
2022-07-27T07:40:12.959Z,51.3
2022-07-27T07:45:00.160Z,49.4
2022-07-27T07:50:00.197Z,48.8
2022-07-27T07:55:00.171Z,47.2
2022-07-27T08:00:00.238Z,47.9
2022-07-27T08:05:00.158Z,45
2022-07-27T08:10:00.185Z,43.4
2022-07-27T08:15:00.155Z,42.8
2022-07-27T08:20:00.189Z,43.8
2022-07-27T08:25:00.158Z,43.8
2022-07-27T08:30:00.148Z,42.5
2022-07-27T08:35:00.162Z,39.6
2022-07-27T08:45:00.620Z,41.9
2022-07-27T08:50:00.234Z,44.1
2022-07-27T08:55:00.150Z,41.8
2022-07-27T09:00:00.241Z,42.8
2022-07-27T09:05:00.157Z,42.5
2022-07-27T09:10:00.202Z,40.9
2022-07-27T09:15:00.148Z,41.3
2022-07-27T09:20:00.194Z,41.3
2022-07-27T09:25:00.173Z,41.9
2022-07-27T09:30:00.166Z,41.9
2022-07-27T09:35:00.165Z,41.3
2022-07-27T09:40:00.183Z,38.7
2022-07-27T09:45:00.155Z,40
2022-07-27T09:50:00.173Z,40
2022-07-27T09:55:00.158Z,40.6
2022-07-27T10:00:00.208Z,40.7
2022-07-27T10:05:00.274Z,38.8
2022-07-27T10:10:00.371Z,38.2
2022-07-27T10:15:00.161Z,37.6
2022-07-27T10:20:00.178Z,38.9
2022-07-27T10:25:00.158Z,35.9
2022-07-27T10:30:00.199Z,36.6
2022-07-27T10:35:00.155Z,35.3
2022-07-27T10:40:00.147Z,35.6
2022-07-27T10:45:00.168Z,36.8
2022-07-27T10:50:00.169Z,37.1
2022-07-27T10:55:00.310Z,39.1
2022-07-27T11:00:10.207Z,39
2022-07-27T11:05:00.153Z,39.1
2022-07-27T11:10:03.974Z,38.7
2022-07-27T11:15:00.157Z,40
2022-07-27T11:20:00.200Z,38.1
2022-07-27T11:25:00.173Z,38.1
2022-07-27T11:30:00.174Z,38.1
2022-07-27T11:35:00.157Z,38.1
2022-07-27T11:40:03.426Z,36.6
2022-07-27T11:45:00.164Z,36.9
2022-07-27T11:50:00.278Z,35.7
2022-07-27T11:55:00.180Z,35.7
2022-07-27T12:00:00.191Z,34.7
2022-07-27T12:05:02.885Z,33.7
2022-07-27T12:10:00.190Z,34.4
2022-07-27T12:15:00.153Z,35
2022-07-27T12:20:00.255Z,36.2
2022-07-27T12:25:00.153Z,36.9
2022-07-27T12:30:00.238Z,36.9
2022-07-27T12:35:00.148Z,39.1
2022-07-27T12:40:00.203Z,38.8
2022-07-27T12:45:00.153Z,37.8
2022-07-27T12:50:00.176Z,36.9
2022-07-27T12:55:00.254Z,35.7
2022-07-27T13:00:00.217Z,34.1
2022-07-27T13:05:00.262Z,34.1
2022-07-27T13:10:01.886Z,34.4
2022-07-27T13:15:00.160Z,32.5
2022-07-27T13:20:00.175Z,32.8
2022-07-27T13:25:00.240Z,34.4
2022-07-27T13:30:00.207Z,35
2022-07-27T13:35:00.176Z,35.3
2022-07-27T13:40:00.265Z,36.3
2022-07-27T13:45:07.945Z,36.9
2022-07-27T13:50:00.173Z,36.6
2022-07-27T13:55:00.158Z,33.7
2022-07-27T14:00:00.194Z,34.7
2022-07-27T14:05:00.181Z,33.1
2022-07-27T14:10:00.168Z,33.1
2022-07-27T14:15:00.257Z,33.1
2022-07-27T14:20:00.205Z,34
2022-07-27T14:25:00.170Z,35.6
2022-07-27T14:30:00.312Z,36.2
2022-07-27T14:35:00.299Z,37.8
2022-07-27T14:40:00.263Z,38.1
2022-07-27T14:45:00.158Z,39.1
2022-07-27T14:50:00.454Z,39.4
2022-07-27T14:55:00.150Z,37.8
2022-07-27T15:00:00.205Z,37.5
2022-07-27T15:05:00.150Z,36.9
2022-07-27T15:10:00.171Z,37.5
2022-07-27T15:15:00.159Z,37.2
2022-07-27T15:20:00.153Z,38.2
2022-07-27T15:25:00.148Z,36.2
2022-07-27T15:30:00.159Z,36.2
2022-07-27T15:35:00.155Z,36.6
2022-07-27T15:40:00.161Z,37.5
2022-07-27T15:45:00.151Z,35.9
2022-07-27T15:50:00.189Z,36.6
2022-07-27T15:55:00.164Z,34.3
2022-07-27T16:00:00.191Z,35.6
2022-07-27T16:05:00.183Z,35.6
2022-07-27T16:10:00.170Z,35.6
2022-07-27T16:15:00.174Z,36.6
2022-07-27T16:20:00.153Z,37.5
2022-07-27T16:25:00.150Z,37.5
2022-07-27T16:30:00.174Z,37.5
2022-07-27T16:35:00.150Z,38.1
2022-07-27T16:40:00.173Z,39.7
2022-07-27T16:45:00.150Z,40.7
2022-07-27T16:50:00.174Z,41
2022-07-27T16:55:00.144Z,40.4
2022-07-27T17:00:00.179Z,37.3
2022-07-27T17:05:00.152Z,34.4
2022-07-27T17:10:00.159Z,36.3
2022-07-27T17:15:00.149Z,37.5
2022-07-27T17:20:00.192Z,38.1
2022-07-27T17:25:00.153Z,40
2022-07-27T17:30:00.209Z,41
2022-07-27T17:35:00.292Z,42.5
2022-07-27T17:40:00.206Z,43.5
2022-07-27T17:45:00.253Z,43.8
2022-07-27T17:50:00.164Z,44.4
2022-07-27T17:55:00.145Z,45.1
2022-07-27T18:00:00.159Z,45.7
2022-07-27T18:05:00.161Z,46.3
2022-07-27T18:10:00.187Z,47
2022-07-27T18:15:00.146Z,46.6
2022-07-27T18:20:00.152Z,47.2
2022-07-27T18:25:00.154Z,47.5
2022-07-27T18:30:00.186Z,47.8
2022-07-27T18:35:00.183Z,48.1
2022-07-27T18:40:00.200Z,48.8
2022-07-27T18:45:00.231Z,50
2022-07-27T18:50:00.259Z,50.7
2022-07-27T18:55:00.230Z,50.3
2022-07-27T19:00:00.178Z,50.9
2022-07-27T19:05:00.215Z,50.9
2022-07-27T19:10:00.167Z,52.5
2022-07-27T19:15:00.148Z,52.2
2022-07-27T19:20:00.185Z,52.8
2022-07-27T19:25:00.148Z,52.5
2022-07-27T19:30:00.185Z,52.5
2022-07-27T19:35:00.143Z,52.5
2022-07-27T19:40:14.325Z,53.1
2022-07-27T19:45:00.152Z,53.4
2022-07-27T19:50:00.210Z,53.7
2022-07-27T19:55:00.153Z,53.4
2022-07-27T20:00:00.192Z,53.7
2022-07-27T20:05:00.156Z,53.7
2022-07-27T20:10:00.192Z,53.4
2022-07-27T20:15:00.150Z,53.4
2022-07-27T20:20:00.150Z,53.7
2022-07-27T20:25:00.173Z,53.7
2022-07-27T20:30:00.187Z,54
2022-07-27T20:35:00.168Z,53.7
2022-07-27T20:40:00.218Z,54.3
2022-07-27T20:45:00.153Z,54.3
2022-07-27T20:50:00.216Z,54.3
2022-07-27T20:55:00.161Z,54.9
2022-07-27T21:00:00.201Z,55.2
2022-07-27T21:05:00.194Z,55.5
2022-07-27T21:10:00.208Z,56.1
2022-07-27T21:15:00.149Z,57.1
2022-07-27T21:20:00.173Z,57.4
2022-07-27T21:25:00.156Z,58
2022-07-27T21:30:00.199Z,58
2022-07-27T21:35:00.153Z,58.6
2022-07-27T21:40:00.192Z,58.6
2022-07-27T21:45:00.146Z,58.6
2022-07-27T21:50:00.168Z,58.9
2022-07-27T21:55:00.148Z,59.2
2022-07-27T22:00:00.206Z,59.6
2022-07-27T22:05:00.155Z,59.2
2022-07-27T22:10:00.182Z,59.2
2022-07-27T22:15:00.158Z,59.9
2022-07-27T22:20:00.214Z,60.2
2022-07-27T22:25:00.152Z,60.5
2022-07-27T22:30:00.186Z,60.5
2022-07-27T22:35:00.154Z,60.8
2022-07-27T22:40:00.182Z,61.1
2022-07-27T22:45:00.148Z,60.5
2022-07-27T22:50:00.175Z,61.1
2022-07-27T22:55:00.147Z,60.5
2022-07-27T23:00:00.187Z,60.4
2022-07-27T23:05:00.307Z,60.4
2022-07-27T23:10:00.168Z,60.4
2022-07-27T23:15:00.144Z,60.4
2022-07-27T23:20:00.199Z,60.4
2022-07-27T23:25:00.174Z,60.4
2022-07-27T23:30:00.185Z,60.4
2022-07-27T23:35:00.159Z,60.4
2022-07-27T23:40:00.167Z,60.4
2022-07-27T23:45:00.149Z,60.4
2022-07-27T23:50:00.186Z,60.4
2022-07-27T23:55:00.150Z,60.4
